createdAt,value
2018-12-11T00:00:30.592Z,13.8
2018-12-11T00:01:31.980Z,13.9
2018-12-11T00:02:34.330Z,13.8
2018-12-11T00:03:35.691Z,14.1
2018-12-11T00:04:37.040Z,14.3
2018-12-11T00:05:38.631Z,13.8
2018-12-11T00:06:40.172Z,13.9
2018-12-11T00:07:41.421Z,13.5
2018-12-11T00:08:42.690Z,13.7
2018-12-11T00:09:44.002Z,13.7
2018-12-11T00:10:46.560Z,13.8
2018-12-11T00:11:49.683Z,14.1
2018-12-11T00:12:52.324Z,13.8
2018-12-11T00:13:54.710Z,13.8
2018-12-11T00:14:58.098Z,14.1
2018-12-11T00:16:00.686Z,13.8
2018-12-11T00:17:03.996Z,14.1
2018-12-11T00:18:05.292Z,13.9
2018-12-11T00:19:06.774Z,14
2018-12-11T00:20:08.723Z,13.9
2018-12-11T00:21:09.985Z,14
2018-12-11T00:22:11.295Z,13.8
2018-12-11T00:23:12.569Z,13.6
2018-12-11T00:24:13.821Z,13.6
2018-12-11T00:25:15.291Z,13.2
2018-12-11T00:26:16.575Z,13.5
2018-12-11T00:27:17.991Z,13
2018-12-11T00:28:19.251Z,13.2
2018-12-11T00:29:20.825Z,13.2
2018-12-11T00:30:25.310Z,13.2
2018-12-11T00:31:26.838Z,13.4
2018-12-11T00:32:30.995Z,13.7
2018-12-11T00:33:32.265Z,13.6
2018-12-11T00:34:36.290Z,13.5
2018-12-11T00:35:37.575Z,13.2
2018-12-11T00:36:38.908Z,13.5
2018-12-11T00:37:40.160Z,13.7
2018-12-11T00:38:41.804Z,13.4
2018-12-11T00:39:43.190Z,13.1
2018-12-11T00:40:44.569Z,12.9
2018-12-11T00:41:45.831Z,12.6
2018-12-11T00:42:47.128Z,12.9
2018-12-11T00:43:48.380Z,12.7
2018-12-11T00:44:49.640Z,12.8
2018-12-11T00:45:50.922Z,13
2018-12-11T00:46:52.176Z,13.5
2018-12-11T00:47:53.484Z,13.6
2018-12-11T00:48:54.758Z,13.1
2018-12-11T00:49:56.090Z,13.1
2018-12-11T00:50:57.654Z,13
2018-12-11T00:51:58.898Z,12.8
2018-12-11T00:53:00.168Z,13.1
2018-12-11T00:54:01.442Z,13.3
2018-12-11T00:55:02.792Z,13.1
2018-12-11T00:56:04.113Z,13
2018-12-11T00:57:05.361Z,13.1
2018-12-11T00:58:06.634Z,12.9
2018-12-11T00:59:07.890Z,12.9
2018-12-11T01:00:09.194Z,12.5
2018-12-11T01:01:10.504Z,12.7
2018-12-11T01:02:11.975Z,12.7
2018-12-11T01:03:13.245Z,12.7
2018-12-11T01:04:14.496Z,12.6
2018-12-11T01:05:15.760Z,12.9
2018-12-11T01:06:17.114Z,12.6
2018-12-11T01:07:18.437Z,12.3
2018-12-11T01:08:19.694Z,12.7
2018-12-11T01:09:21.012Z,12.7
2018-12-11T01:10:22.280Z,13
2018-12-11T01:11:23.700Z,12.9
2018-12-11T01:12:25.221Z,13.2
2018-12-11T01:13:26.480Z,13.2
2018-12-11T01:14:27.750Z,12.8
2018-12-11T01:15:29.014Z,12.6
2018-12-11T01:16:30.323Z,12.8
2018-12-11T01:17:31.625Z,13
2018-12-11T01:18:32.887Z,12.9
2018-12-11T01:19:34.490Z,12.5
2018-12-11T01:20:36.911Z,12.5
2018-12-11T01:21:38.304Z,12.3
2018-12-11T01:22:39.554Z,12.3
2018-12-11T01:23:40.822Z,12.3
2018-12-11T01:24:42.084Z,12.4
2018-12-11T01:25:43.365Z,12.1
2018-12-11T01:26:44.985Z,12.2
2018-12-11T01:27:46.275Z,12.2
2018-12-11T01:28:47.539Z,12.1
2018-12-11T01:29:49.027Z,12.4
2018-12-11T01:30:51.231Z,12.4
2018-12-11T01:31:52.565Z,12.5
2018-12-11T01:32:53.859Z,12.6
2018-12-11T01:33:55.137Z,12.5
2018-12-11T01:34:56.515Z,12.2
2018-12-11T01:35:57.763Z,12.4
2018-12-11T01:36:59.866Z,12.8
2018-12-11T01:38:01.124Z,12.2
2018-12-11T01:39:02.391Z,12.6
2018-12-11T01:40:03.995Z,12.6
2018-12-11T01:41:05.379Z,12.9
2018-12-11T01:42:09.436Z,12.5
2018-12-11T01:43:10.741Z,12.4
2018-12-11T01:44:12.012Z,12.3
2018-12-11T01:45:13.307Z,12.3
2018-12-11T01:46:14.730Z,12.4
2018-12-11T01:47:16.065Z,12.4
2018-12-11T01:48:17.355Z,12.5
2018-12-11T01:49:18.624Z,12.4
2018-12-11T01:50:19.882Z,12.1
2018-12-11T01:51:21.164Z,12.1
2018-12-11T01:52:22.439Z,12
2018-12-11T01:53:23.676Z,12
2018-12-11T01:54:25.194Z,12
2018-12-11T01:55:26.467Z,11.7
2018-12-11T01:56:27.753Z,11.5
2018-12-11T01:57:29.421Z,11.7
2018-12-11T01:58:30.741Z,11.4
2018-12-11T01:59:32.051Z,11.5
2018-12-11T02:00:33.339Z,11.5
2018-12-11T02:01:34.630Z,11.5
2018-12-11T02:02:39.499Z,11.8
2018-12-11T02:03:41.627Z,11.7
2018-12-11T02:04:42.877Z,11.6
2018-12-11T02:05:44.164Z,11.4
2018-12-11T02:06:45.429Z,11.6
2018-12-11T02:07:46.771Z,11.9
2018-12-11T02:08:48.053Z,11.8
2018-12-11T02:09:49.460Z,12.1
2018-12-11T02:10:50.712Z,11.5
2018-12-11T02:11:51.960Z,11.7
2018-12-11T02:12:53.890Z,11.9
2018-12-11T02:13:55.225Z,12.2
2018-12-11T02:14:56.483Z,11.9
2018-12-11T02:15:57.747Z,11.9
2018-12-11T02:16:59.031Z,12.2
2018-12-11T02:18:00.326Z,12.2
2018-12-11T02:19:01.582Z,12
2018-12-11T02:20:02.919Z,11.9
2018-12-11T02:21:04.244Z,11.3
2018-12-11T02:22:05.531Z,11.5
2018-12-11T02:23:06.816Z,11.9
2018-12-11T02:24:08.075Z,11.7
2018-12-11T02:25:09.349Z,11.9
2018-12-11T02:26:10.629Z,11.6
2018-12-11T02:27:11.896Z,11.9
2018-12-11T02:28:13.365Z,11.9
2018-12-11T02:29:15.163Z,11.9
2018-12-11T02:30:16.451Z,11.7
2018-12-11T02:31:17.700Z,11.7
2018-12-11T02:32:18.984Z,11.9
2018-12-11T02:33:20.290Z,12.2
2018-12-11T02:34:21.568Z,12.1
2018-12-11T02:35:22.901Z,12.2
2018-12-11T02:36:24.256Z,12
2018-12-11T02:37:25.985Z,12.1
2018-12-11T02:38:27.285Z,12.1
2018-12-11T02:39:28.564Z,11.9
2018-12-11T02:40:29.837Z,11.8
2018-12-11T02:41:31.126Z,11.9
2018-12-11T02:42:32.501Z,11.7
2018-12-11T02:43:33.823Z,12.2
2018-12-11T02:44:35.082Z,12.2
2018-12-11T02:45:36.355Z,12.2
2018-12-11T02:46:37.612Z,12
2018-12-11T02:47:39.145Z,11.8
2018-12-11T02:48:40.589Z,12.1
2018-12-11T02:49:42.076Z,12.2
2018-12-11T02:50:43.369Z,11.9
2018-12-11T02:51:44.652Z,12
2018-12-11T02:52:45.910Z,12.2
2018-12-11T02:53:47.240Z,11.7
2018-12-11T02:54:48.511Z,11.7
2018-12-11T02:55:49.776Z,11.3
2018-12-11T02:56:51.037Z,11.4
2018-12-11T02:57:52.354Z,11.4
2018-12-11T02:58:55.632Z,11.7
2018-12-11T02:59:56.931Z,11.4
2018-12-11T03:00:58.402Z,11.5
2018-12-11T03:01:59.665Z,11.2
2018-12-11T03:03:00.932Z,11.3
2018-12-11T03:04:05.348Z,11.4
2018-12-11T03:05:06.609Z,11.4
2018-12-11T03:06:07.895Z,11.7
2018-12-11T03:07:09.184Z,11.5
2018-12-11T03:08:10.456Z,11.1
2018-12-11T03:09:11.746Z,11.2
2018-12-11T03:10:13.197Z,11.3
2018-12-11T03:11:14.468Z,11.5
2018-12-11T03:12:15.731Z,11.6
2018-12-11T03:13:17.254Z,11.7
2018-12-11T03:14:19.090Z,11.7
2018-12-11T03:15:20.602Z,11.4
2018-12-11T03:16:21.846Z,11.3
2018-12-11T03:17:23.100Z,11.4
2018-12-11T03:18:24.355Z,11.3
2018-12-11T03:19:25.661Z,11.6
2018-12-11T03:20:26.923Z,11.4
2018-12-11T03:21:28.217Z,11.5
2018-12-11T03:22:29.508Z,11.4
2018-12-11T03:23:31.200Z,11.5
2018-12-11T03:24:32.506Z,11.4
2018-12-11T03:25:33.764Z,11.3
2018-12-11T03:26:35.020Z,11.5
2018-12-11T03:27:36.302Z,11.3
2018-12-11T03:28:37.524Z,11.2
2018-12-11T03:29:39.239Z,11.1
2018-12-11T03:30:40.512Z,11.4
2018-12-11T03:31:41.777Z,11.3
2018-12-11T03:32:45.967Z,11.4
2018-12-11T03:33:47.264Z,11.3
2018-12-11T03:34:48.551Z,11.2
2018-12-11T03:35:49.822Z,11
2018-12-11T03:36:51.096Z,11.1
2018-12-11T03:37:52.789Z,11.3
2018-12-11T03:38:54.347Z,11.4
2018-12-11T03:39:55.628Z,11.4
2018-12-11T03:40:56.903Z,11.1
2018-12-11T03:41:58.164Z,10.7
2018-12-11T03:42:59.416Z,10.9
2018-12-11T03:44:00.685Z,11.1
2018-12-11T03:45:02.006Z,11.2
2018-12-11T03:46:03.251Z,11.3
2018-12-11T03:47:04.696Z,11.4
2018-12-11T03:48:05.958Z,11.7
2018-12-11T03:49:07.243Z,11.6
2018-12-11T03:50:08.673Z,11.6
2018-12-11T03:51:09.961Z,11.5
2018-12-11T04:02:34.317Z,11.3
2018-12-11T04:03:35.617Z,11.2
2018-12-11T04:04:36.905Z,10.9
2018-12-11T04:05:38.160Z,10.9
2018-12-11T04:06:39.444Z,11.1
2018-12-11T04:07:40.773Z,11.2
2018-12-11T04:08:42.371Z,11.1
2018-12-11T04:09:43.634Z,10.9
2018-12-11T04:10:44.916Z,10.9
2018-12-11T04:11:46.183Z,11
2018-12-11T04:12:47.515Z,10.8
2018-12-11T04:13:48.812Z,10.5
2018-12-11T04:14:50.093Z,10.6
2018-12-11T04:15:51.392Z,10.4
2018-12-11T04:16:52.662Z,10.4
2018-12-11T04:17:55.072Z,10.7
2018-12-11T04:18:56.773Z,10.8
2018-12-11T04:19:58.317Z,10.8
2018-12-11T04:20:59.596Z,11
2018-12-11T04:22:02.956Z,10.8
2018-12-11T04:23:04.295Z,10.9
2018-12-11T04:24:05.576Z,10.8
2018-12-11T04:25:06.839Z,10.7
2018-12-11T04:26:08.100Z,10.5
2018-12-11T04:27:09.365Z,10.6
2018-12-11T04:28:10.672Z,10.5
2018-12-11T04:29:11.933Z,10.6
2018-12-11T04:30:14.306Z,10.6
2018-12-11T04:31:15.605Z,10.4
2018-12-11T04:32:16.872Z,10.4
2018-12-11T04:33:18.167Z,10.4
2018-12-11T04:34:19.422Z,10.4
2018-12-11T04:35:20.693Z,10.5
2018-12-11T04:36:21.992Z,10.5
2018-12-11T04:37:23.265Z,10.4
2018-12-11T04:38:24.596Z,10.1
2018-12-11T04:39:25.904Z,10.4
2018-12-11T04:40:27.180Z,10.6
2018-12-11T04:41:28.447Z,10.4
2018-12-11T04:42:29.705Z,10.4
2018-12-11T04:43:31.008Z,10.4
2018-12-11T04:44:32.277Z,10.5
2018-12-11T04:45:33.604Z,10.4
2018-12-11T04:46:35.205Z,10.3
2018-12-11T04:47:36.501Z,10.2
2018-12-11T04:48:38.372Z,10
2018-12-11T04:49:39.624Z,10
2018-12-11T04:50:41.112Z,10.1
2018-12-11T04:51:42.365Z,10.1
2018-12-11T04:52:43.605Z,10.3
2018-12-11T04:53:44.924Z,10.3
2018-12-11T04:54:48.666Z,10.3
2018-12-11T04:55:49.913Z,10.4
2018-12-11T04:56:51.173Z,10.3
2018-12-11T04:57:52.435Z,10.2
2018-12-11T04:58:53.716Z,10.4
2018-12-11T04:59:54.985Z,10.3
2018-12-11T05:00:56.260Z,9.9
2018-12-11T05:01:57.520Z,9.9
2018-12-11T05:02:58.785Z,10.1
2018-12-11T05:04:00.100Z,10.3
2018-12-11T05:05:02.573Z,10.3
2018-12-11T05:06:03.839Z,10.1
2018-12-11T05:07:05.116Z,10.1
2018-12-11T05:08:06.366Z,10.3
2018-12-11T05:09:09.571Z,10.3
2018-12-11T05:10:10.831Z,10.2
2018-12-11T05:11:18.247Z,10.1
2018-12-11T05:12:19.528Z,9.6
2018-12-11T05:13:20.812Z,10
2018-12-11T05:14:24.490Z,10.1
2018-12-11T05:15:25.764Z,10
2018-12-11T05:16:27.052Z,10.1
2018-12-11T05:17:28.800Z,10
2018-12-11T05:18:30.092Z,10.2
2018-12-11T05:19:34.006Z,10.2
2018-12-11T05:20:37.868Z,10.2
2018-12-11T05:21:39.168Z,10.2
2018-12-11T05:22:40.424Z,10.3
2018-12-11T05:23:41.686Z,10.3
2018-12-11T05:24:42.980Z,10.1
2018-12-11T05:25:44.223Z,10.3
2018-12-11T05:26:45.477Z,10.4
2018-12-11T05:27:47.479Z,10.2
2018-12-11T05:28:48.746Z,10.3
2018-12-11T05:29:50.046Z,9.9
2018-12-11T05:30:51.309Z,10.4
2018-12-11T05:31:52.652Z,10.5
2018-12-11T05:32:53.912Z,10.5
2018-12-11T05:33:55.173Z,10.3
2018-12-11T05:34:59.640Z,10.1
2018-12-11T05:36:00.905Z,10.3
2018-12-11T05:37:02.180Z,10.2
2018-12-11T05:38:03.836Z,10.2
2018-12-11T05:39:05.109Z,10.2
2018-12-11T05:40:06.395Z,10.2
2018-12-11T05:41:07.675Z,10.1
2018-12-11T05:42:08.925Z,10
2018-12-11T05:43:12.767Z,10.1
2018-12-11T05:44:14.074Z,10.2
2018-12-11T05:45:15.391Z,10.2
2018-12-11T05:46:16.708Z,10.1
2018-12-11T05:47:18.323Z,10.1
2018-12-11T05:48:19.592Z,10.1
2018-12-11T05:49:21.204Z,10
2018-12-11T05:50:22.788Z,10
2018-12-11T05:51:24.033Z,10.1
2018-12-11T05:52:25.292Z,10.1
2018-12-11T05:53:26.567Z,10.4
2018-12-11T05:54:28.962Z,10.3
2018-12-11T05:55:32.696Z,10.1
2018-12-11T05:56:35.066Z,10.2
2018-12-11T05:57:37.341Z,10.1
2018-12-11T05:58:38.637Z,10.1
2018-12-11T05:59:39.932Z,10.3
2018-12-11T06:00:41.242Z,10.1
2018-12-11T06:01:42.528Z,10
2018-12-11T06:02:43.777Z,9.8
2018-12-11T06:03:48.175Z,10
2018-12-11T06:04:49.497Z,10.2
2018-12-11T06:05:50.828Z,10.1
2018-12-11T06:06:52.096Z,10.1
2018-12-11T06:07:53.671Z,10
2018-12-11T06:08:55.162Z,9.9
2018-12-11T06:09:56.476Z,10
2018-12-11T06:10:57.795Z,10.1
2018-12-11T06:11:59.081Z,10.3
2018-12-11T06:13:03.325Z,9.9
2018-12-11T06:14:04.594Z,10.2
2018-12-11T06:15:05.884Z,10.3
2018-12-11T06:16:07.186Z,10.3
2018-12-11T06:17:08.451Z,10.3
2018-12-11T06:18:09.705Z,10.6
2018-12-11T06:19:10.957Z,10.4
2018-12-11T06:20:12.236Z,10.3
2018-12-11T06:21:13.569Z,10.3
2018-12-11T06:22:14.849Z,10.2
2018-12-11T06:23:16.115Z,10.1
2018-12-11T06:24:17.375Z,9.8
2018-12-11T06:25:18.719Z,9.8
2018-12-11T06:26:20.038Z,9.7
2018-12-11T06:27:21.342Z,9.6
2018-12-11T06:28:22.618Z,9.6
2018-12-11T06:29:23.893Z,9.6
2018-12-11T06:30:25.164Z,9.8
2018-12-11T06:31:26.702Z,9.7
2018-12-11T06:32:28.536Z,9.5
2018-12-11T06:33:29.837Z,9.3
2018-12-11T06:34:31.434Z,9.4
2018-12-11T06:35:32.695Z,9.4
2018-12-11T06:36:34.748Z,9.6
2018-12-11T06:37:36.017Z,9.8
2018-12-11T06:38:37.296Z,9.7
2018-12-11T06:39:38.573Z,9.4
2018-12-11T06:40:41.092Z,9.6
2018-12-11T06:41:42.380Z,9.5
2018-12-11T06:42:43.713Z,9.5
2018-12-11T06:43:47.804Z,9.4
2018-12-11T06:44:49.069Z,9.7
2018-12-11T06:45:50.346Z,9.9
2018-12-11T06:46:52.041Z,9.8
2018-12-11T06:47:53.413Z,9.9
2018-12-11T06:48:54.716Z,9.6
2018-12-11T06:49:56.031Z,9.8
2018-12-11T06:50:57.323Z,9.7
2018-12-11T06:51:58.713Z,9.8
2018-12-11T06:52:59.986Z,9.6
2018-12-11T06:54:04.363Z,9.5
2018-12-11T06:55:05.664Z,9.3
2018-12-11T06:56:06.964Z,9.4
2018-12-11T06:57:08.303Z,9.7
2018-12-11T06:58:09.565Z,9.7
2018-12-11T06:59:11.373Z,9.8
2018-12-11T07:00:12.660Z,9.6
2018-12-11T07:01:13.942Z,9.9
2018-12-11T07:02:15.317Z,9.6
2018-12-11T07:03:16.600Z,9.6
2018-12-11T07:04:17.876Z,9.6
2018-12-11T07:05:19.243Z,9.8
2018-12-11T07:06:20.596Z,10
2018-12-11T07:07:22.354Z,9.8
2018-12-11T07:08:23.652Z,9.7
2018-12-11T07:09:24.907Z,9.5
2018-12-11T07:10:26.173Z,9.6
2018-12-11T07:11:30.478Z,9.4
2018-12-11T07:12:31.792Z,9.8
2018-12-11T07:13:33.344Z,9.6
2018-12-11T07:14:36.203Z,9.7
2018-12-11T07:15:51.595Z,10.3
2018-12-11T07:16:55.366Z,11.2
2018-12-11T07:17:59.072Z,12.3
2018-12-11T07:19:00.383Z,12.8
2018-12-11T07:20:01.722Z,12.7
2018-12-11T07:21:03.053Z,13.1
2018-12-11T07:22:04.677Z,13
2018-12-11T07:23:06.057Z,13.3
2018-12-11T07:24:07.347Z,13.3
2018-12-11T07:25:09.076Z,13.2
2018-12-11T07:26:10.388Z,13.1
2018-12-11T07:27:11.749Z,13.3
2018-12-11T07:28:13.123Z,13.3
2018-12-11T07:29:14.654Z,13.5
2018-12-11T07:30:17.243Z,13.4
2018-12-11T07:31:18.860Z,13.4
2018-12-11T07:32:21.592Z,13.4
2018-12-11T07:33:23.659Z,13.3
2018-12-11T07:34:30.292Z,13.3
2018-12-11T07:35:32.252Z,13.4
2018-12-11T07:36:33.648Z,13.2
2018-12-11T07:37:35.060Z,13.3
2018-12-11T07:38:36.476Z,13.4
2018-12-11T07:39:37.824Z,13.4
2018-12-11T07:40:39.232Z,13.4
2018-12-11T07:41:40.582Z,13.4
2018-12-11T07:42:41.931Z,13.5
2018-12-11T07:43:45.646Z,13.7
2018-12-11T07:44:46.988Z,14
2018-12-11T07:45:48.303Z,14.2
2018-12-11T07:46:49.638Z,14.3
2018-12-11T07:47:51.013Z,14.4
2018-12-11T07:48:52.343Z,14.8
2018-12-11T07:49:54.722Z,15.1
2018-12-11T07:50:56.322Z,15.3
2018-12-11T07:51:57.632Z,15.3
2018-12-11T07:52:58.956Z,15.1
2018-12-11T07:54:00.422Z,15
2018-12-11T07:55:01.746Z,15.1
2018-12-11T07:56:05.174Z,15.1
2018-12-11T07:57:06.485Z,15.3
2018-12-11T07:58:07.812Z,15.7
2018-12-11T07:59:09.204Z,15.8
2018-12-11T08:00:10.490Z,16
2018-12-11T08:01:11.793Z,16
2018-12-11T08:02:14.288Z,15.9
2018-12-11T08:03:15.665Z,15.9
2018-12-11T08:04:16.976Z,16
2018-12-11T08:05:18.320Z,15.9
2018-12-11T08:06:19.613Z,16.2
2018-12-11T08:07:20.931Z,16.3
2018-12-11T08:08:25.257Z,16.3
2018-12-11T08:09:26.921Z,16.3
2018-12-11T08:10:28.237Z,16.3
2018-12-11T08:11:30.370Z,16.2
2018-12-11T08:12:31.657Z,16.2
2018-12-11T08:13:32.948Z,16.4
2018-12-11T08:14:36.664Z,16.2
2018-12-11T08:15:38.217Z,16.5
2018-12-11T08:16:39.545Z,16.6
2018-12-11T08:17:42.268Z,16.2
2018-12-11T08:18:47.833Z,16.2
2018-12-11T08:19:49.233Z,16.3
2018-12-11T08:20:53.396Z,16.4
2018-12-11T08:21:55.717Z,16.5
2018-12-11T08:23:01.151Z,16.7
2018-12-11T08:24:03.492Z,16.7
2018-12-11T08:25:05.002Z,16.8
2018-12-11T08:26:06.450Z,16.8
2018-12-11T08:27:07.825Z,16.8
2018-12-11T08:28:09.390Z,16.9
2018-12-11T08:29:10.740Z,16.9
2018-12-11T08:30:15.185Z,17
2018-12-11T08:31:17.284Z,17.1
2018-12-11T08:32:22.550Z,17.1
2018-12-11T08:33:23.953Z,17
2018-12-11T08:34:26.617Z,17
2018-12-11T08:35:28.127Z,17
2018-12-11T08:36:30.565Z,17
2018-12-11T08:37:31.996Z,17
2018-12-11T08:38:33.566Z,17.2
2018-12-11T08:39:40.483Z,17.2
2018-12-11T08:40:42.170Z,17.4
2018-12-11T08:41:43.815Z,17.2
2018-12-11T08:42:45.790Z,17.4
2018-12-11T08:43:47.509Z,17.2
2018-12-11T08:44:51.413Z,17.3
2018-12-11T08:45:55.102Z,17.5
2018-12-11T08:46:56.541Z,17.4
2018-12-11T08:47:58.007Z,17.3
2018-12-11T08:48:59.462Z,17.3
2018-12-11T08:50:00.903Z,17.4
2018-12-11T08:51:02.397Z,17.3
2018-12-11T08:52:03.859Z,17.3
2018-12-11T08:53:05.289Z,17.2
2018-12-11T08:54:06.718Z,17.3
2018-12-11T08:55:08.153Z,17.2
2018-12-11T08:56:11.598Z,17.4
2018-12-11T08:57:13.915Z,17.4
2018-12-11T08:58:16.437Z,17.2
2018-12-11T08:59:18.689Z,16.9
2018-12-11T09:00:20.062Z,16.9
2018-12-11T09:01:21.577Z,16.8
2018-12-11T09:02:25.794Z,17
2018-12-11T09:03:27.496Z,16.9
2018-12-11T09:04:29.314Z,17
2018-12-11T09:05:30.729Z,16.8
2018-12-11T09:06:32.360Z,16.8
2018-12-11T09:07:36.251Z,16.8
2018-12-11T09:08:37.799Z,16.9
2018-12-11T09:09:42.260Z,16.6
2018-12-11T09:10:44.360Z,16.6
2018-12-11T09:11:45.917Z,16.5
2018-12-11T09:12:48.549Z,16.4
2018-12-11T09:13:52.133Z,16.3
2018-12-11T09:14:53.674Z,16.4
2018-12-11T09:15:55.340Z,16.4
2018-12-11T09:16:59.340Z,16.4
2018-12-11T09:18:00.767Z,16.2
2018-12-11T09:19:02.235Z,16.2
2018-12-11T09:20:04.798Z,16.2
2018-12-11T09:21:06.200Z,16.2
2018-12-11T09:22:07.643Z,16.2
2018-12-11T09:23:09.293Z,16.1
2018-12-11T09:24:10.661Z,16.2
2018-12-11T09:25:14.941Z,16.3
2018-12-11T09:26:16.351Z,16.3
2018-12-11T09:27:18.379Z,16.3
2018-12-11T09:28:19.705Z,16.1
2018-12-11T09:29:21.385Z,16
2018-12-11T09:30:22.823Z,16.1
2018-12-11T09:31:24.185Z,16.1
2018-12-11T09:32:25.572Z,16.1
2018-12-11T09:33:26.984Z,16
2018-12-11T09:34:28.393Z,16.1
2018-12-11T09:35:29.759Z,16.1
2018-12-11T09:36:31.238Z,16.1
2018-12-11T09:37:32.609Z,16
2018-12-11T09:38:33.965Z,16.2
2018-12-11T09:39:35.254Z,16.1
2018-12-11T09:40:36.582Z,15.9
2018-12-11T09:41:41.225Z,15.9
2018-12-11T09:42:45.151Z,15.9
2018-12-11T09:43:46.513Z,15.9
2018-12-11T09:44:47.874Z,16.1
2018-12-11T09:45:49.286Z,16.1
2018-12-11T09:46:53.003Z,16.1
2018-12-11T09:47:54.479Z,16.3
2018-12-11T09:48:55.980Z,16.2
2018-12-11T09:49:57.382Z,16.1
2018-12-11T09:50:58.774Z,16.1
2018-12-11T09:52:00.322Z,16.1
2018-12-11T09:53:01.775Z,16.2
2018-12-11T09:54:05.859Z,16.2
2018-12-11T09:55:09.412Z,16.2
2018-12-11T09:56:10.765Z,16.3
2018-12-11T09:57:12.291Z,16.3
2018-12-11T09:58:14.078Z,16.2
2018-12-11T09:59:23.224Z,16.2
2018-12-11T10:00:26.568Z,16.3
2018-12-11T10:01:29.667Z,16.3
2018-12-11T10:02:34.387Z,16.3
2018-12-11T10:03:38.220Z,16.2
2018-12-11T10:04:41.806Z,16.2
2018-12-11T10:05:43.224Z,15.9
2018-12-11T10:06:44.664Z,16.1
2018-12-11T10:07:46.059Z,16
2018-12-11T10:08:47.475Z,16.1
2018-12-11T10:09:48.980Z,16.5
2018-12-11T10:10:50.413Z,16.4
2018-12-11T10:11:53.806Z,16.3
2018-12-11T10:12:58.142Z,16.3
2018-12-11T10:14:01.624Z,16.3
2018-12-11T10:15:02.956Z,16.4
2018-12-11T10:16:04.899Z,16.6
2018-12-11T10:17:06.401Z,16.9
2018-12-11T10:18:08.004Z,17.1
2018-12-11T10:19:11.015Z,17.3
2018-12-11T10:20:22.132Z,17.3
2018-12-11T10:21:24.865Z,17.3
2018-12-11T10:22:28.799Z,17.4
2018-12-11T10:23:33.661Z,17.4
2018-12-11T10:24:35.311Z,17.6
2018-12-11T10:25:36.780Z,17.6
2018-12-11T10:26:44.350Z,17.7
2018-12-11T10:27:45.730Z,17.6
2018-12-11T10:28:51.286Z,17.7
2018-12-11T10:29:52.941Z,17.8
2018-12-11T10:30:57.477Z,17.8
2018-12-11T10:31:59.413Z,17.8
2018-12-11T10:33:01.093Z,17.7
2018-12-11T10:34:05.175Z,17.7
2018-12-11T10:35:10.722Z,17.7
2018-12-11T10:36:12.107Z,17.7
2018-12-11T10:37:13.499Z,17.6
2018-12-11T10:38:14.945Z,17.6
2018-12-11T10:39:17.327Z,17.6
2018-12-11T10:40:23.879Z,17.5
2018-12-11T10:41:25.800Z,17.4
2018-12-11T10:42:29.394Z,17.2
2018-12-11T10:43:33.359Z,17.4
2018-12-11T10:44:35.136Z,17.4
2018-12-11T10:45:42.331Z,17.2
2018-12-11T10:46:44.829Z,17.3
2018-12-11T10:47:46.898Z,17.2
2018-12-11T10:48:48.334Z,17.3
2018-12-11T10:49:51.295Z,17.3
2018-12-11T10:50:52.729Z,17.2
2018-12-11T10:51:54.234Z,17.1
2018-12-11T10:52:57.241Z,17.1
2018-12-11T10:54:01.737Z,17
2018-12-11T10:55:08.482Z,17
2018-12-11T10:56:09.933Z,16.9
2018-12-11T10:57:11.319Z,16.9
2018-12-11T10:58:12.703Z,16.9
2018-12-11T10:59:14.336Z,16.9
2018-12-11T11:00:15.753Z,16.8
2018-12-11T11:01:17.266Z,17
2018-12-11T11:02:19.015Z,16.9
2018-12-11T11:03:21.341Z,16.9
2018-12-11T11:04:22.773Z,16.8
2018-12-11T11:05:24.302Z,17
2018-12-11T11:06:26.353Z,17
2018-12-11T11:07:27.759Z,16.9
2018-12-11T11:08:29.397Z,16.9
2018-12-11T11:09:30.864Z,16.9
2018-12-11T11:10:32.272Z,16.8
2018-12-11T11:11:33.729Z,16.9
2018-12-11T11:12:38.323Z,16.9
2018-12-11T11:13:41.091Z,16.8
2018-12-11T11:14:42.573Z,16.8
2018-12-11T11:15:44.059Z,16.8
2018-12-11T11:16:50.094Z,16.8
2018-12-11T11:17:51.872Z,16.8
2018-12-11T11:18:53.262Z,16.8
2018-12-11T11:19:54.662Z,16.8
2018-12-11T11:20:56.098Z,16.7
2018-12-11T11:21:58.778Z,16.8
2018-12-11T11:23:00.318Z,16.8
2018-12-11T11:24:01.703Z,16.7
2018-12-11T11:25:03.066Z,16.8
2018-12-11T11:26:04.492Z,16.9
2018-12-11T11:27:06.187Z,16.8
2018-12-11T11:28:07.626Z,16.9
2018-12-11T11:29:11.131Z,16.9
2018-12-11T11:30:15.423Z,16.8
2018-12-11T11:31:18.995Z,17
2018-12-11T11:32:20.813Z,17
2018-12-11T11:33:22.327Z,16.7
2018-12-11T11:34:23.701Z,17
2018-12-11T11:35:25.153Z,16.9
2018-12-11T11:36:26.678Z,16.9
2018-12-11T11:37:30.632Z,16.9
2018-12-11T11:38:34.756Z,16.8
2018-12-11T11:39:39.088Z,16.9
2018-12-11T11:40:40.794Z,17
2018-12-11T11:41:42.213Z,16.9
2018-12-11T11:42:43.666Z,16.7
2018-12-11T11:43:45.310Z,16.6
2018-12-11T11:44:50.908Z,16.6
2018-12-11T11:45:59.008Z,16.7
2018-12-11T11:47:00.461Z,16.8
2018-12-11T11:48:02.596Z,16.8
2018-12-11T11:49:04.041Z,16.8
2018-12-11T11:50:05.466Z,16.9
2018-12-11T11:51:06.972Z,17
2018-12-11T11:52:08.724Z,17
2018-12-11T11:53:13.940Z,17
2018-12-11T11:54:18.211Z,17
2018-12-11T11:55:20.498Z,17.1
2018-12-11T11:56:21.918Z,17
2018-12-11T11:57:29.519Z,17
2018-12-11T11:58:34.255Z,16.9
2018-12-11T11:59:36.094Z,16.9
2018-12-11T12:00:37.648Z,17
2018-12-11T12:01:39.071Z,17
2018-12-11T12:02:40.573Z,17.1
2018-12-11T12:03:42.534Z,17
2018-12-11T12:04:44.144Z,17
2018-12-11T12:05:45.657Z,17
2018-12-11T12:06:48.974Z,17
2018-12-11T12:07:51.553Z,17
2018-12-11T12:08:59.167Z,17
2018-12-11T12:10:00.885Z,16.9
2018-12-11T12:11:05.114Z,17.1
2018-12-11T12:12:06.734Z,17.1
2018-12-11T12:13:08.610Z,17
2018-12-11T12:14:10.094Z,16.9
2018-12-11T12:15:12.853Z,16.9
2018-12-11T12:16:18.887Z,17
2018-12-11T12:17:22.317Z,17.1
2018-12-11T12:18:25.839Z,17.1
2018-12-11T12:19:30.793Z,17.2
2018-12-11T12:20:32.855Z,17.2
2018-12-11T12:21:34.339Z,17.2
2018-12-11T12:22:44.142Z,17.2
2018-12-11T12:23:46.350Z,17.1
2018-12-11T12:24:52.697Z,17.1
2018-12-11T12:25:56.545Z,17.3
2018-12-11T12:27:00.282Z,17.5
2018-12-11T12:28:01.758Z,17.6
2018-12-11T12:29:03.209Z,17.8
2018-12-11T12:30:06.066Z,18
2018-12-11T12:31:07.667Z,18
2018-12-11T12:32:12.758Z,18
2018-12-11T12:33:14.299Z,18
2018-12-11T12:34:15.808Z,18.1
2018-12-11T12:35:17.699Z,18
2018-12-11T12:36:19.100Z,17.9
2018-12-11T12:37:20.487Z,17.8
2018-12-11T12:38:22.993Z,17.9
2018-12-11T12:39:27.658Z,17.8
2018-12-11T12:40:29.329Z,17.8
2018-12-11T12:41:30.795Z,17.8
2018-12-11T12:42:32.722Z,17.7
2018-12-11T12:43:34.206Z,17.7
2018-12-11T12:44:40.587Z,17.6
2018-12-11T12:45:49.005Z,17.6
2018-12-11T12:46:50.486Z,17.6
2018-12-11T12:47:51.931Z,17.5
2018-12-11T12:48:53.354Z,17.5
2018-12-11T12:49:55.297Z,17.5
2018-12-11T12:50:57.094Z,17.5
2018-12-11T12:51:58.928Z,17.5
2018-12-11T12:53:00.319Z,17.4
2018-12-11T12:54:01.738Z,17.3
2018-12-11T12:55:03.163Z,17.4
2018-12-11T12:56:04.700Z,17.3
2018-12-11T12:57:06.141Z,17.4
2018-12-11T12:58:07.577Z,17.4
2018-12-11T12:59:11.590Z,17.3
2018-12-11T13:00:12.975Z,17.2
2018-12-11T13:01:17.288Z,17.4
2018-12-11T13:02:18.839Z,17.2
2018-12-11T13:03:20.249Z,17.4
2018-12-11T13:04:21.703Z,17.4
2018-12-11T13:05:23.992Z,17.4
2018-12-11T13:06:26.306Z,17.3
2018-12-11T13:07:27.998Z,17.2
2018-12-11T13:08:32.278Z,17.3
2018-12-11T13:09:34.349Z,17.2
2018-12-11T13:10:35.999Z,17.4
2018-12-11T13:11:39.067Z,17.4
2018-12-11T13:12:40.831Z,17.4
2018-12-11T13:13:42.701Z,17.4
2018-12-11T13:14:47.033Z,17.3
2018-12-11T13:15:49.862Z,17.3
2018-12-11T13:16:52.295Z,17.3
2018-12-11T13:17:53.705Z,17.3
2018-12-11T13:19:00.450Z,17.2
2018-12-11T13:20:03.687Z,17.2
2018-12-11T13:21:05.646Z,17.1
2018-12-11T13:22:07.741Z,17.2
2018-12-11T13:23:09.331Z,17.2
2018-12-11T13:24:11.694Z,17.3
2018-12-11T13:25:18.650Z,17.3
2018-12-11T13:26:20.606Z,17.3
2018-12-11T13:27:23.934Z,17.4
2018-12-11T13:28:25.371Z,17.3
2018-12-11T13:29:27.103Z,17.3
2018-12-11T13:30:28.549Z,17.4
2018-12-11T13:31:30.175Z,17.4
2018-12-11T13:32:31.644Z,17.3
2018-12-11T13:33:36.162Z,17.3
2018-12-11T13:34:37.690Z,17.2
2018-12-11T13:35:39.285Z,17.3
2018-12-11T13:36:41.334Z,17.3
2018-12-11T13:37:43.464Z,17.2
2018-12-11T13:38:45.296Z,17.3
2018-12-11T13:39:46.890Z,17.3
2018-12-11T13:40:48.677Z,17.3
2018-12-11T13:41:50.051Z,17.2
2018-12-11T13:42:51.767Z,17.3
2018-12-11T13:43:53.229Z,17.4
2018-12-11T13:44:56.090Z,17.4
2018-12-11T13:45:58.025Z,17.4
2018-12-11T13:47:00.085Z,17.4
2018-12-11T13:48:01.825Z,17.4
2018-12-11T13:49:03.469Z,17.4
2018-12-11T13:50:07.238Z,17.2
2018-12-11T13:51:11.417Z,17.3
2018-12-11T13:52:13.101Z,17.3
2018-12-11T13:53:22.327Z,17.3
2018-12-11T13:54:26.317Z,17.3
2018-12-11T13:55:29.674Z,17.3
2018-12-11T13:56:39.776Z,17.3
2018-12-11T13:57:43.859Z,17.4
2018-12-11T13:58:45.296Z,17.5
2018-12-11T13:59:46.692Z,17.4
2018-12-11T14:00:48.545Z,17.2
2018-12-11T14:01:50.028Z,17.2
2018-12-11T14:02:57.203Z,17.1